sensor_id;sensor_type;location;lat;lon;timestamp;temperature;humidity
4602;DHT22;2313;48.552;9.370;2023-06-14T00:01:32;15.40;51.60
4602;DHT22;2313;48.552;9.370;2023-06-14T00:04:00;15.30;51.80
4602;DHT22;2313;48.552;9.370;2023-06-14T00:06:28;15.20;52.50
4602;DHT22;2313;48.552;9.370;2023-06-14T00:08:53;15.20;51.90
4602;DHT22;2313;48.552;9.370;2023-06-14T00:11:19;15.10;52.20
4602;DHT22;2313;48.552;9.370;2023-06-14T00:13:45;15.10;53.30
4602;DHT22;2313;48.552;9.370;2023-06-14T00:16:11;15.10;52.00
4602;DHT22;2313;48.552;9.370;2023-06-14T00:18:37;15.10;52.60
4602;DHT22;2313;48.552;9.370;2023-06-14T00:21:04;14.90;57.60
4602;DHT22;2313;48.552;9.370;2023-06-14T00:23:30;14.70;56.90
4602;DHT22;2313;48.552;9.370;2023-06-14T00:25:55;14.50;59.20
4602;DHT22;2313;48.552;9.370;2023-06-14T00:28:21;14.50;59.70
4602;DHT22;2313;48.552;9.370;2023-06-14T00:30:47;14.40;61.80
4602;DHT22;2313;48.552;9.370;2023-06-14T00:33:12;14.10;62.20
4602;DHT22;2313;48.552;9.370;2023-06-14T00:35:38;13.90;61.90
4602;DHT22;2313;48.552;9.370;2023-06-14T00:38:04;13.80;63.70
4602;DHT22;2313;48.552;9.370;2023-06-14T00:40:29;14.00;64.80
4602;DHT22;2313;48.552;9.370;2023-06-14T00:42:55;14.00;65.30
4602;DHT22;2313;48.552;9.370;2023-06-14T00:45:21;14.00;62.40
4602;DHT22;2313;48.552;9.370;2023-06-14T00:47:47;14.10;63.10
4602;DHT22;2313;48.552;9.370;2023-06-14T00:50:13;14.00;62.80
4602;DHT22;2313;48.552;9.370;2023-06-14T00:52:40;14.00;63.50
4602;DHT22;2313;48.552;9.370;2023-06-14T00:55:06;13.90;65.10
4602;DHT22;2313;48.552;9.370;2023-06-14T00:57:32;13.90;64.70
4602;DHT22;2313;48.552;9.370;2023-06-14T00:59:58;13.90;65.80
4602;DHT22;2313;48.552;9.370;2023-06-14T01:02:23;13.90;65.20
4602;DHT22;2313;48.552;9.370;2023-06-14T01:04:52;13.90;64.50
4602;DHT22;2313;48.552;9.370;2023-06-14T01:10:15;13.90;65.90
4602;DHT22;2313;48.552;9.370;2023-06-14T01:15:20;14.00;70.60
4602;DHT22;2313;48.552;9.370;2023-06-14T01:17:49;14.00;69.60
4602;DHT22;2313;48.552;9.370;2023-06-14T01:20:17;13.90;65.70
4602;DHT22;2313;48.552;9.370;2023-06-14T01:22:52;13.90;65.40
4602;DHT22;2313;48.552;9.370;2023-06-14T01:25:22;13.90;66.80
4602;DHT22;2313;48.552;9.370;2023-06-14T01:27:58;13.80;64.40
4602;DHT22;2313;48.552;9.370;2023-06-14T01:30:25;13.80;65.00
4602;DHT22;2313;48.552;9.370;2023-06-14T01:32:52;13.70;63.10
4602;DHT22;2313;48.552;9.370;2023-06-14T01:35:19;13.80;62.90
4602;DHT22;2313;48.552;9.370;2023-06-14T01:37:47;13.80;62.50
4602;DHT22;2313;48.552;9.370;2023-06-14T01:40:15;13.80;63.40
4602;DHT22;2313;48.552;9.370;2023-06-14T01:42:41;13.80;62.40
4602;DHT22;2313;48.552;9.370;2023-06-14T01:45:09;13.90;64.10
4602;DHT22;2313;48.552;9.370;2023-06-14T01:47:36;13.90;66.10
4602;DHT22;2313;48.552;9.370;2023-06-14T01:50:03;13.80;67.10
4602;DHT22;2313;48.552;9.370;2023-06-14T01:52:29;13.70;66.40
4602;DHT22;2313;48.552;9.370;2023-06-14T01:54:55;13.70;67.70
4602;DHT22;2313;48.552;9.370;2023-06-14T01:57:21;13.60;68.70
4602;DHT22;2313;48.552;9.370;2023-06-14T01:59:47;13.60;69.40
4602;DHT22;2313;48.552;9.370;2023-06-14T02:02:14;13.50;71.20
4602;DHT22;2313;48.552;9.370;2023-06-14T02:04:40;13.50;72.10
4602;DHT22;2313;48.552;9.370;2023-06-14T02:07:06;13.40;75.00
4602;DHT22;2313;48.552;9.370;2023-06-14T02:09:32;13.30;72.00
4602;DHT22;2313;48.552;9.370;2023-06-14T02:11:57;13.30;71.10
4602;DHT22;2313;48.552;9.370;2023-06-14T02:14:23;13.10;75.20
4602;DHT22;2313;48.552;9.370;2023-06-14T02:16:49;13.10;71.10
4602;DHT22;2313;48.552;9.370;2023-06-14T02:19:16;13.10;72.30
4602;DHT22;2313;48.552;9.370;2023-06-14T02:21:42;13.20;72.70
4602;DHT22;2313;48.552;9.370;2023-06-14T02:24:08;13.10;75.50
4602;DHT22;2313;48.552;9.370;2023-06-14T02:26:33;13.20;77.60
4602;DHT22;2313;48.552;9.370;2023-06-14T02:28:59;13.00;76.80
4602;DHT22;2313;48.552;9.370;2023-06-14T02:31:25;13.20;78.40
4602;DHT22;2313;48.552;9.370;2023-06-14T02:33:51;12.90;79.50
4602;DHT22;2313;48.552;9.370;2023-06-14T02:36:16;12.90;78.10
4602;DHT22;2313;48.552;9.370;2023-06-14T02:38:42;12.90;81.20
4602;DHT22;2313;48.552;9.370;2023-06-14T02:41:08;12.90;77.40
4602;DHT22;2313;48.552;9.370;2023-06-14T02:43:33;13.00;76.50
4602;DHT22;2313;48.552;9.370;2023-06-14T02:45:59;13.10;80.50
4602;DHT22;2313;48.552;9.370;2023-06-14T02:48:25;12.90;80.00
4602;DHT22;2313;48.552;9.370;2023-06-14T02:50:50;12.90;79.10
4602;DHT22;2313;48.552;9.370;2023-06-14T02:53:16;13.00;79.20
4602;DHT22;2313;48.552;9.370;2023-06-14T02:55:42;12.90;78.30
4602;DHT22;2313;48.552;9.370;2023-06-14T02:58:08;12.80;83.00
4602;DHT22;2313;48.552;9.370;2023-06-14T03:00:33;12.80;81.00
4602;DHT22;2313;48.552;9.370;2023-06-14T03:03:00;12.30;79.70
4602;DHT22;2313;48.552;9.370;2023-06-14T03:05:27;12.40;79.80
4602;DHT22;2313;48.552;9.370;2023-06-14T03:07:53;12.40;83.10
4602;DHT22;2313;48.552;9.370;2023-06-14T03:10:19;12.40;83.80
4602;DHT22;2313;48.552;9.370;2023-06-14T03:12:46;12.50;83.50
4602;DHT22;2313;48.552;9.370;2023-06-14T03:15:12;12.50;82.30
4602;DHT22;2313;48.552;9.370;2023-06-14T03:17:40;12.40;83.60
4602;DHT22;2313;48.552;9.370;2023-06-14T03:20:10;12.40;83.00
4602;DHT22;2313;48.552;9.370;2023-06-14T03:22:36;12.40;82.10
4602;DHT22;2313;48.552;9.370;2023-06-14T03:25:03;12.40;86.10
4602;DHT22;2313;48.552;9.370;2023-06-14T03:27:29;12.40;85.20
4602;DHT22;2313;48.552;9.370;2023-06-14T03:29:55;12.50;88.80
4602;DHT22;2313;48.552;9.370;2023-06-14T03:32:21;12.30;87.80
4602;DHT22;2313;48.552;9.370;2023-06-14T03:34:46;12.20;87.30
4602;DHT22;2313;48.552;9.370;2023-06-14T03:37:12;12.30;88.80
4602;DHT22;2313;48.552;9.370;2023-06-14T03:39:37;12.20;89.50
4602;DHT22;2313;48.552;9.370;2023-06-14T03:42:04;12.20;90.00
4602;DHT22;2313;48.552;9.370;2023-06-14T03:44:29;12.20;88.90
4602;DHT22;2313;48.552;9.370;2023-06-14T03:46:55;12.20;88.30
4602;DHT22;2313;48.552;9.370;2023-06-14T03:49:21;12.20;88.90
4602;DHT22;2313;48.552;9.370;2023-06-14T03:51:46;12.40;91.30
4602;DHT22;2313;48.552;9.370;2023-06-14T03:54:16;12.20;90.20
4602;DHT22;2313;48.552;9.370;2023-06-14T03:56:41;12.40;90.20
4602;DHT22;2313;48.552;9.370;2023-06-14T03:59:07;12.40;91.40
4602;DHT22;2313;48.552;9.370;2023-06-14T04:01:33;12.30;90.40
4602;DHT22;2313;48.552;9.370;2023-06-14T04:03:59;12.00;90.30
4602;DHT22;2313;48.552;9.370;2023-06-14T04:06:25;11.80;91.20
4602;DHT22;2313;48.552;9.370;2023-06-14T04:08:58;11.90;91.00
4602;DHT22;2313;48.552;9.370;2023-06-14T04:11:29;11.70;92.80
4602;DHT22;2313;48.552;9.370;2023-06-14T04:13:55;12.00;93.20
4602;DHT22;2313;48.552;9.370;2023-06-14T04:16:22;12.30;94.80
4602;DHT22;2313;48.552;9.370;2023-06-14T04:18:47;12.40;95.30
4602;DHT22;2313;48.552;9.370;2023-06-14T04:21:13;12.50;96.60
4602;DHT22;2313;48.552;9.370;2023-06-14T04:23:39;12.50;98.00
4602;DHT22;2313;48.552;9.370;2023-06-14T04:26:09;12.60;97.90
4602;DHT22;2313;48.552;9.370;2023-06-14T04:28:36;12.50;96.40
4602;DHT22;2313;48.552;9.370;2023-06-14T04:31:06;12.50;96.70
4602;DHT22;2313;48.552;9.370;2023-06-14T04:33:36;12.80;96.50
4602;DHT22;2313;48.552;9.370;2023-06-14T04:36:11;12.80;95.90
4602;DHT22;2313;48.552;9.370;2023-06-14T04:38:38;12.80;95.40
4602;DHT22;2313;48.552;9.370;2023-06-14T04:41:03;13.00;95.00
4602;DHT22;2313;48.552;9.370;2023-06-14T04:43:29;13.10;93.30
4602;DHT22;2313;48.552;9.370;2023-06-14T04:45:55;13.10;92.60
4602;DHT22;2313;48.552;9.370;2023-06-14T04:48:22;13.20;93.10
4602;DHT22;2313;48.552;9.370;2023-06-14T04:50:48;13.20;93.30
4602;DHT22;2313;48.552;9.370;2023-06-14T04:53:18;13.40;93.50
4602;DHT22;2313;48.552;9.370;2023-06-14T04:55:47;13.50;94.10
4602;DHT22;2313;48.552;9.370;2023-06-14T04:58:12;13.60;93.60
4602;DHT22;2313;48.552;9.370;2023-06-14T05:00:38;13.60;95.40
4602;DHT22;2313;48.552;9.370;2023-06-14T05:03:04;13.70;95.80
4602;DHT22;2313;48.552;9.370;2023-06-14T05:05:31;13.80;96.90
4602;DHT22;2313;48.552;9.370;2023-06-14T05:07:57;13.90;93.00
4602;DHT22;2313;48.552;9.370;2023-06-14T05:10:24;14.10;94.30
4602;DHT22;2313;48.552;9.370;2023-06-14T05:12:50;14.30;95.40
4602;DHT22;2313;48.552;9.370;2023-06-14T05:15:18;14.40;93.20
4602;DHT22;2313;48.552;9.370;2023-06-14T05:17:46;14.50;94.00
4602;DHT22;2313;48.552;9.370;2023-06-14T05:20:18;14.60;92.40
4602;DHT22;2313;48.552;9.370;2023-06-14T05:22:44;14.80;91.60
4602;DHT22;2313;48.552;9.370;2023-06-14T05:25:09;14.90;92.00
4602;DHT22;2313;48.552;9.370;2023-06-14T05:27:35;15.00;91.40
4602;DHT22;2313;48.552;9.370;2023-06-14T05:30:02;15.00;90.80
4602;DHT22;2313;48.552;9.370;2023-06-14T05:32:29;15.10;91.30
4602;DHT22;2313;48.552;9.370;2023-06-14T05:34:55;15.20;90.80
4602;DHT22;2313;48.552;9.370;2023-06-14T05:37:20;15.20;90.70
4602;DHT22;2313;48.552;9.370;2023-06-14T05:39:46;15.20;91.50
4602;DHT22;2313;48.552;9.370;2023-06-14T05:42:12;15.40;92.50
4602;DHT22;2313;48.552;9.370;2023-06-14T05:44:38;15.50;93.10
4602;DHT22;2313;48.552;9.370;2023-06-14T05:47:03;15.60;92.20
4602;DHT22;2313;48.552;9.370;2023-06-14T05:49:29;15.80;92.20
4602;DHT22;2313;48.552;9.370;2023-06-14T05:51:55;16.00;92.80
4602;DHT22;2313;48.552;9.370;2023-06-14T05:54:20;16.00;92.00
4602;DHT22;2313;48.552;9.370;2023-06-14T05:56:46;16.20;93.00
4602;DHT22;2313;48.552;9.370;2023-06-14T05:59:11;16.40;92.70
4602;DHT22;2313;48.552;9.370;2023-06-14T06:01:37;16.40;93.10
4602;DHT22;2313;48.552;9.370;2023-06-14T06:04:03;16.60;93.80
4602;DHT22;2313;48.552;9.370;2023-06-14T06:06:28;16.80;91.40
4602;DHT22;2313;48.552;9.370;2023-06-14T06:08:54;16.90;91.60
4602;DHT22;2313;48.552;9.370;2023-06-14T06:11:19;17.00;91.80
4602;DHT22;2313;48.552;9.370;2023-06-14T06:13:45;16.90;90.40
4602;DHT22;2313;48.552;9.370;2023-06-14T06:16:11;16.90;91.00
4602;DHT22;2313;48.552;9.370;2023-06-14T06:18:37;16.80;91.10
4602;DHT22;2313;48.552;9.370;2023-06-14T06:21:04;17.00;91.10
4602;DHT22;2313;48.552;9.370;2023-06-14T06:23:29;17.10;92.10
4602;DHT22;2313;48.552;9.370;2023-06-14T06:25:56;17.20;91.60
4602;DHT22;2313;48.552;9.370;2023-06-14T06:28:21;17.30;91.90
4602;DHT22;2313;48.552;9.370;2023-06-14T06:30:47;17.40;92.00
4602;DHT22;2313;48.552;9.370;2023-06-14T06:33:13;17.70;93.50
4602;DHT22;2313;48.552;9.370;2023-06-14T06:35:39;17.80;94.10
4602;DHT22;2313;48.552;9.370;2023-06-14T06:38:05;17.80;94.60
4602;DHT22;2313;48.552;9.370;2023-06-14T06:40:31;17.80;95.60
4602;DHT22;2313;48.552;9.370;2023-06-14T06:42:56;18.00;95.30
4602;DHT22;2313;48.552;9.370;2023-06-14T06:45:22;18.10;91.80
4602;DHT22;2313;48.552;9.370;2023-06-14T06:47:48;18.10;92.00
4602;DHT22;2313;48.552;9.370;2023-06-14T06:50:15;18.10;93.40
4602;DHT22;2313;48.552;9.370;2023-06-14T06:52:41;18.40;94.30
4602;DHT22;2313;48.552;9.370;2023-06-14T06:55:07;18.40;92.10
4602;DHT22;2313;48.552;9.370;2023-06-14T06:57:34;18.60;91.80
4602;DHT22;2313;48.552;9.370;2023-06-14T06:59:59;18.60;91.50
4602;DHT22;2313;48.552;9.370;2023-06-14T07:02:25;18.70;91.20
4602;DHT22;2313;48.552;9.370;2023-06-14T07:04:50;18.80;90.90
4602;DHT22;2313;48.552;9.370;2023-06-14T07:07:17;18.90;90.50
4602;DHT22;2313;48.552;9.370;2023-06-14T07:09:43;18.90;91.20
4602;DHT22;2313;48.552;9.370;2023-06-14T07:12:09;19.10;90.60
4602;DHT22;2313;48.552;9.370;2023-06-14T07:14:37;19.10;90.00
4602;DHT22;2313;48.552;9.370;2023-06-14T07:17:02;19.20;89.30
4602;DHT22;2313;48.552;9.370;2023-06-14T07:19:28;19.20;88.80
4602;DHT22;2313;48.552;9.370;2023-06-14T07:21:53;19.30;87.80
4602;DHT22;2313;48.552;9.370;2023-06-14T07:24:19;19.30;87.00
4602;DHT22;2313;48.552;9.370;2023-06-14T07:26:46;19.40;89.20
4602;DHT22;2313;48.552;9.370;2023-06-14T07:29:13;19.40;86.30
4602;DHT22;2313;48.552;9.370;2023-06-14T07:31:39;19.40;84.40
4602;DHT22;2313;48.552;9.370;2023-06-14T07:34:05;19.50;83.10
4602;DHT22;2313;48.552;9.370;2023-06-14T07:36:30;19.60;84.90
4602;DHT22;2313;48.552;9.370;2023-06-14T07:38:56;19.60;85.30
4602;DHT22;2313;48.552;9.370;2023-06-14T07:41:22;19.70;85.60
4602;DHT22;2313;48.552;9.370;2023-06-14T07:43:47;19.60;84.00
4602;DHT22;2313;48.552;9.370;2023-06-14T07:46:13;19.60;84.10
4602;DHT22;2313;48.552;9.370;2023-06-14T07:48:39;19.80;86.20
4602;DHT22;2313;48.552;9.370;2023-06-14T07:51:05;19.90;88.10
4602;DHT22;2313;48.552;9.370;2023-06-14T07:53:31;19.90;86.70
4602;DHT22;2313;48.552;9.370;2023-06-14T07:55:57;20.00;88.30
4602;DHT22;2313;48.552;9.370;2023-06-14T07:58:22;20.30;88.10
4602;DHT22;2313;48.552;9.370;2023-06-14T08:00:48;20.10;88.70
4602;DHT22;2313;48.552;9.370;2023-06-14T08:03:14;20.30;88.20
4602;DHT22;2313;48.552;9.370;2023-06-14T08:05:40;20.20;88.20
4602;DHT22;2313;48.552;9.370;2023-06-14T08:08:05;20.40;88.40
4602;DHT22;2313;48.552;9.370;2023-06-14T08:10:31;20.40;87.80
4602;DHT22;2313;48.552;9.370;2023-06-14T08:12:56;20.70;88.00
4602;DHT22;2313;48.552;9.370;2023-06-14T08:15:22;20.80;87.70
4602;DHT22;2313;48.552;9.370;2023-06-14T08:17:48;21.00;86.50
4602;DHT22;2313;48.552;9.370;2023-06-14T08:20:13;21.10;85.10
4602;DHT22;2313;48.552;9.370;2023-06-14T08:22:42;21.10;82.80
4602;DHT22;2313;48.552;9.370;2023-06-14T08:25:08;21.20;85.50
4602;DHT22;2313;48.552;9.370;2023-06-14T08:27:34;21.30;85.90
4602;DHT22;2313;48.552;9.370;2023-06-14T08:30:00;21.40;85.90
4602;DHT22;2313;48.552;9.370;2023-06-14T08:32:25;21.50;83.80
4602;DHT22;2313;48.552;9.370;2023-06-14T08:34:51;21.90;82.90
4602;DHT22;2313;48.552;9.370;2023-06-14T08:37:16;22.00;84.40
4602;DHT22;2313;48.552;9.370;2023-06-14T08:39:42;22.30;80.40
4602;DHT22;2313;48.552;9.370;2023-06-14T08:42:09;22.40;81.50
4602;DHT22;2313;48.552;9.370;2023-06-14T08:44:36;22.50;80.80
4602;DHT22;2313;48.552;9.370;2023-06-14T08:47:02;22.70;80.40
4602;DHT22;2313;48.552;9.370;2023-06-14T08:49:29;23.00;79.30
4602;DHT22;2313;48.552;9.370;2023-06-14T08:51:58;23.20;79.50
4602;DHT22;2313;48.552;9.370;2023-06-14T08:54:27;23.40;80.00
4602;DHT22;2313;48.552;9.370;2023-06-14T08:56:55;23.70;80.70
4602;DHT22;2313;48.552;9.370;2023-06-14T08:59:25;23.80;80.40
4602;DHT22;2313;48.552;9.370;2023-06-14T09:01:52;23.80;79.10
4602;DHT22;2313;48.552;9.370;2023-06-14T09:04:18;24.00;77.90
4602;DHT22;2313;48.552;9.370;2023-06-14T09:06:45;24.10;74.60
4602;DHT22;2313;48.552;9.370;2023-06-14T09:09:11;24.20;74.40
4602;DHT22;2313;48.552;9.370;2023-06-14T09:11:37;24.50;75.00
4602;DHT22;2313;48.552;9.370;2023-06-14T09:14:03;24.70;73.40
4602;DHT22;2313;48.552;9.370;2023-06-14T09:16:32;25.00;74.50
4602;DHT22;2313;48.552;9.370;2023-06-14T09:18:57;25.10;73.70
4602;DHT22;2313;48.552;9.370;2023-06-14T09:21:23;25.30;74.40
4602;DHT22;2313;48.552;9.370;2023-06-14T09:23:49;25.50;75.80
4602;DHT22;2313;48.552;9.370;2023-06-14T09:26:19;25.70;71.00
4602;DHT22;2313;48.552;9.370;2023-06-14T09:28:49;26.00;70.20
4602;DHT22;2313;48.552;9.370;2023-06-14T09:31:17;26.10;70.60
4602;DHT22;2313;48.552;9.370;2023-06-14T09:33:43;26.40;71.00
4602;DHT22;2313;48.552;9.370;2023-06-14T09:36:22;26.50;67.80
4602;DHT22;2313;48.552;9.370;2023-06-14T09:38:54;26.50;68.50
4602;DHT22;2313;48.552;9.370;2023-06-14T09:41:26;26.70;67.20
4602;DHT22;2313;48.552;9.370;2023-06-14T09:43:55;27.00;67.90
4602;DHT22;2313;48.552;9.370;2023-06-14T09:46:22;26.90;67.70
4602;DHT22;2313;48.552;9.370;2023-06-14T09:48:48;26.70;67.20
4602;DHT22;2313;48.552;9.370;2023-06-14T09:51:15;26.90;69.20
4602;DHT22;2313;48.552;9.370;2023-06-14T09:53:43;27.00;69.50
4602;DHT22;2313;48.552;9.370;2023-06-14T09:56:10;27.10;68.70
4602;DHT22;2313;48.552;9.370;2023-06-14T09:58:37;27.30;68.60
4602;DHT22;2313;48.552;9.370;2023-06-14T10:01:06;27.50;68.60
4602;DHT22;2313;48.552;9.370;2023-06-14T10:03:34;27.70;69.50
4602;DHT22;2313;48.552;9.370;2023-06-14T10:06:03;27.90;68.50
4602;DHT22;2313;48.552;9.370;2023-06-14T10:08:32;28.00;68.60
4602;DHT22;2313;48.552;9.370;2023-06-14T10:11:02;28.30;69.10
4602;DHT22;2313;48.552;9.370;2023-06-14T10:13:30;28.50;68.10
4602;DHT22;2313;48.552;9.370;2023-06-14T10:24:03;28.50;67.30
4602;DHT22;2313;48.552;9.370;2023-06-14T10:26:30;28.50;67.60
4602;DHT22;2313;48.552;9.370;2023-06-14T10:29:01;28.50;67.90
4602;DHT22;2313;48.552;9.370;2023-06-14T10:32:06;28.80;67.00
4602;DHT22;2313;48.552;9.370;2023-06-14T10:34:31;28.90;66.00
4602;DHT22;2313;48.552;9.370;2023-06-14T10:37:10;28.90;67.40
4602;DHT22;2313;48.552;9.370;2023-06-14T10:39:42;29.00;67.40
4602;DHT22;2313;48.552;9.370;2023-06-14T10:42:08;29.10;68.00
4602;DHT22;2313;48.552;9.370;2023-06-14T10:44:38;29.20;66.30
4602;DHT22;2313;48.552;9.370;2023-06-14T10:47:57;29.00;67.10
4602;DHT22;2313;48.552;9.370;2023-06-14T10:50:06;28.90;67.50
4602;DHT22;2313;48.552;9.370;2023-06-14T10:52:42;29.30;65.70
4602;DHT22;2313;48.552;9.370;2023-06-14T10:55:13;29.30;67.20
4602;DHT22;2313;48.552;9.370;2023-06-14T10:57:47;29.50;64.60
4602;DHT22;2313;48.552;9.370;2023-06-14T11:00:18;29.70;64.90
4602;DHT22;2313;48.552;9.370;2023-06-14T11:06:01;29.90;63.20
4602;DHT22;2313;48.552;9.370;2023-06-14T11:11:06;29.90;62.50
4602;DHT22;2313;48.552;9.370;2023-06-14T11:13:31;29.70;61.30
4602;DHT22;2313;48.552;9.370;2023-06-14T11:15:57;29.60;62.60
4602;DHT22;2313;48.552;9.370;2023-06-14T11:18:23;29.90;63.50
4602;DHT22;2313;48.552;9.370;2023-06-14T11:20:55;29.80;62.80
4602;DHT22;2313;48.552;9.370;2023-06-14T11:23:21;28.80;62.60
4602;DHT22;2313;48.552;9.370;2023-06-14T11:25:52;28.20;64.20
4602;DHT22;2313;48.552;9.370;2023-06-14T11:28:17;28.10;63.80
4602;DHT22;2313;48.552;9.370;2023-06-14T11:30:45;28.50;63.80
4602;DHT22;2313;48.552;9.370;2023-06-14T11:33:14;28.40;64.20
4602;DHT22;2313;48.552;9.370;2023-06-14T11:35:42;28.50;65.00
4602;DHT22;2313;48.552;9.370;2023-06-14T11:38:10;29.00;65.40
4602;DHT22;2313;48.552;9.370;2023-06-14T11:40:38;29.10;64.20
4602;DHT22;2313;48.552;9.370;2023-06-14T11:43:04;29.20;63.30
4602;DHT22;2313;48.552;9.370;2023-06-14T11:45:30;29.70;66.60
4602;DHT22;2313;48.552;9.370;2023-06-14T11:48:00;29.90;63.80
4602;DHT22;2313;48.552;9.370;2023-06-14T11:50:26;30.10;64.20
4602;DHT22;2313;48.552;9.370;2023-06-14T11:52:54;30.20;64.10
4602;DHT22;2313;48.552;9.370;2023-06-14T11:55:21;29.80;63.80
4602;DHT22;2313;48.552;9.370;2023-06-14T11:57:47;28.90;63.90
4602;DHT22;2313;48.552;9.370;2023-06-14T12:00:13;28.10;64.30
4602;DHT22;2313;48.552;9.370;2023-06-14T12:02:41;27.60;64.10
4602;DHT22;2313;48.552;9.370;2023-06-14T12:05:07;27.70;63.50
4602;DHT22;2313;48.552;9.370;2023-06-14T12:07:39;28.30;65.50
4602;DHT22;2313;48.552;9.370;2023-06-14T12:10:07;28.90;64.50
4602;DHT22;2313;48.552;9.370;2023-06-14T12:12:38;29.10;64.40
4602;DHT22;2313;48.552;9.370;2023-06-14T12:15:06;29.40;64.00
4602;DHT22;2313;48.552;9.370;2023-06-14T12:17:33;29.50;62.80
4602;DHT22;2313;48.552;9.370;2023-06-14T12:20:05;29.40;62.00
4602;DHT22;2313;48.552;9.370;2023-06-14T12:22:34;29.70;64.70
4602;DHT22;2313;48.552;9.370;2023-06-14T12:24:59;30.10;64.40
4602;DHT22;2313;48.552;9.370;2023-06-14T12:27:25;29.50;63.60
4602;DHT22;2313;48.552;9.370;2023-06-14T12:30:01;28.60;63.20
4602;DHT22;2313;48.552;9.370;2023-06-14T12:32:28;28.00;64.70
4602;DHT22;2313;48.552;9.370;2023-06-14T12:34:55;28.30;65.60
4602;DHT22;2313;48.552;9.370;2023-06-14T12:37:21;28.20;65.00
4602;DHT22;2313;48.552;9.370;2023-06-14T12:39:47;28.40;65.00
4602;DHT22;2313;48.552;9.370;2023-06-14T12:42:12;28.60;64.20
4602;DHT22;2313;48.552;9.370;2023-06-14T12:44:39;28.90;64.90
4602;DHT22;2313;48.552;9.370;2023-06-14T12:47:07;28.90;63.20
4602;DHT22;2313;48.552;9.370;2023-06-14T12:49:33;29.10;64.90
4602;DHT22;2313;48.552;9.370;2023-06-14T12:51:58;29.20;63.60
4602;DHT22;2313;48.552;9.370;2023-06-14T12:54:24;29.40;64.20
4602;DHT22;2313;48.552;9.370;2023-06-14T12:56:51;29.50;62.10
4602;DHT22;2313;48.552;9.370;2023-06-14T12:59:17;29.40;62.00
4602;DHT22;2313;48.552;9.370;2023-06-14T13:01:43;29.40;63.60
4602;DHT22;2313;48.552;9.370;2023-06-14T13:04:10;29.30;63.40
4602;DHT22;2313;48.552;9.370;2023-06-14T13:06:36;29.60;64.50
4602;DHT22;2313;48.552;9.370;2023-06-14T13:09:02;29.70;63.80
4602;DHT22;2313;48.552;9.370;2023-06-14T13:11:29;29.50;62.80
4602;DHT22;2313;48.552;9.370;2023-06-14T13:13:55;29.50;62.90
4602;DHT22;2313;48.552;9.370;2023-06-14T13:16:20;29.50;63.30
4602;DHT22;2313;48.552;9.370;2023-06-14T13:18:46;29.40;63.00
4602;DHT22;2313;48.552;9.370;2023-06-14T13:21:12;29.50;63.70
4602;DHT22;2313;48.552;9.370;2023-06-14T13:23:37;29.40;63.70
4602;DHT22;2313;48.552;9.370;2023-06-14T13:26:03;28.50;63.10
4602;DHT22;2313;48.552;9.370;2023-06-14T13:28:28;28.00;63.40
4602;DHT22;2313;48.552;9.370;2023-06-14T13:30:54;27.50;63.30
4602;DHT22;2313;48.552;9.370;2023-06-14T13:33:21;27.50;63.00
4602;DHT22;2313;48.552;9.370;2023-06-14T13:35:46;27.80;64.20
4602;DHT22;2313;48.552;9.370;2023-06-14T13:38:14;27.60;63.80
4602;DHT22;2313;48.552;9.370;2023-06-14T13:40:40;27.90;65.00
4602;DHT22;2313;48.552;9.370;2023-06-14T13:43:06;28.10;63.60
4602;DHT22;2313;48.552;9.370;2023-06-14T13:45:32;28.30;64.30
4602;DHT22;2313;48.552;9.370;2023-06-14T13:47:57;28.60;65.20
4602;DHT22;2313;48.552;9.370;2023-06-14T13:50:23;28.60;63.30
4602;DHT22;2313;48.552;9.370;2023-06-14T13:52:49;28.70;63.50
4602;DHT22;2313;48.552;9.370;2023-06-14T13:55:14;28.90;63.50
4602;DHT22;2313;48.552;9.370;2023-06-14T13:57:40;28.40;63.20
4602;DHT22;2313;48.552;9.370;2023-06-14T14:00:06;28.60;63.60
4602;DHT22;2313;48.552;9.370;2023-06-14T14:02:32;28.40;62.70
4602;DHT22;2313;48.552;9.370;2023-06-14T14:04:57;28.20;63.70
4602;DHT22;2313;48.552;9.370;2023-06-14T14:07:23;28.40;64.60
4602;DHT22;2313;48.552;9.370;2023-06-14T14:09:49;28.40;63.80
4602;DHT22;2313;48.552;9.370;2023-06-14T14:12:14;28.30;63.70
4602;DHT22;2313;48.552;9.370;2023-06-14T14:14:40;28.10;63.00
4602;DHT22;2313;48.552;9.370;2023-06-14T14:17:06;27.80;64.50
4602;DHT22;2313;48.552;9.370;2023-06-14T14:19:32;28.00;64.30
4602;DHT22;2313;48.552;9.370;2023-06-14T14:21:58;28.00;64.50
4602;DHT22;2313;48.552;9.370;2023-06-14T14:24:24;28.00;65.10
4602;DHT22;2313;48.552;9.370;2023-06-14T14:26:49;28.10;66.80
4602;DHT22;2313;48.552;9.370;2023-06-14T14:29:16;28.30;65.60
4602;DHT22;2313;48.552;9.370;2023-06-14T14:31:42;28.30;65.60
4602;DHT22;2313;48.552;9.370;2023-06-14T14:34:08;28.20;64.50
4602;DHT22;2313;48.552;9.370;2023-06-14T14:36:33;28.10;64.40
4602;DHT22;2313;48.552;9.370;2023-06-14T14:39:03;27.90;65.00
4602;DHT22;2313;48.552;9.370;2023-06-14T14:41:29;28.00;65.30
4602;DHT22;2313;48.552;9.370;2023-06-14T14:43:55;28.10;63.60
4602;DHT22;2313;48.552;9.370;2023-06-14T14:46:20;28.00;64.30
4602;DHT22;2313;48.552;9.370;2023-06-14T14:48:46;28.00;64.00
4602;DHT22;2313;48.552;9.370;2023-06-14T14:51:11;28.10;65.00
4602;DHT22;2313;48.552;9.370;2023-06-14T14:53:37;28.10;63.70
4602;DHT22;2313;48.552;9.370;2023-06-14T14:56:03;28.00;64.70
4602;DHT22;2313;48.552;9.370;2023-06-14T14:58:28;28.10;63.80
4602;DHT22;2313;48.552;9.370;2023-06-14T15:00:54;27.90;64.60
4602;DHT22;2313;48.552;9.370;2023-06-14T15:03:20;27.70;63.40
4602;DHT22;2313;48.552;9.370;2023-06-14T15:05:47;27.70;63.90
4602;DHT22;2313;48.552;9.370;2023-06-14T15:08:12;27.70;65.90
4602;DHT22;2313;48.552;9.370;2023-06-14T15:10:39;27.60;65.10
4602;DHT22;2313;48.552;9.370;2023-06-14T15:13:08;27.90;66.20
4602;DHT22;2313;48.552;9.370;2023-06-14T15:15:35;28.00;65.00
4602;DHT22;2313;48.552;9.370;2023-06-14T15:18:01;27.90;64.80
4602;DHT22;2313;48.552;9.370;2023-06-14T15:20:27;27.90;65.40
4602;DHT22;2313;48.552;9.370;2023-06-14T15:22:53;27.80;66.10
4602;DHT22;2313;48.552;9.370;2023-06-14T15:25:27;27.70;65.60
4602;DHT22;2313;48.552;9.370;2023-06-14T15:27:53;27.60;65.90
4602;DHT22;2313;48.552;9.370;2023-06-14T15:30:20;27.60;64.80
4602;DHT22;2313;48.552;9.370;2023-06-14T15:32:45;27.60;64.20
4602;DHT22;2313;48.552;9.370;2023-06-14T15:35:11;27.60;65.00
4602;DHT22;2313;48.552;9.370;2023-06-14T15:37:37;27.50;63.30
4602;DHT22;2313;48.552;9.370;2023-06-14T15:40:04;27.30;64.50
4602;DHT22;2313;48.552;9.370;2023-06-14T15:42:30;27.30;64.10
4602;DHT22;2313;48.552;9.370;2023-06-14T15:44:55;27.30;63.70
4602;DHT22;2313;48.552;9.370;2023-06-14T15:47:21;27.40;63.80
4602;DHT22;2313;48.552;9.370;2023-06-14T15:49:46;27.20;62.70
4602;DHT22;2313;48.552;9.370;2023-06-14T15:52:12;27.00;63.90
4602;DHT22;2313;48.552;9.370;2023-06-14T15:54:38;27.10;63.60
4602;DHT22;2313;48.552;9.370;2023-06-14T15:57:03;27.10;64.70
4602;DHT22;2313;48.552;9.370;2023-06-14T15:59:29;27.00;65.40
4602;DHT22;2313;48.552;9.370;2023-06-14T16:01:55;27.00;65.20
4602;DHT22;2313;48.552;9.370;2023-06-14T16:04:20;27.00;65.60
4602;DHT22;2313;48.552;9.370;2023-06-14T16:06:46;26.80;65.10
4602;DHT22;2313;48.552;9.370;2023-06-14T16:09:11;26.70;65.50
4602;DHT22;2313;48.552;9.370;2023-06-14T16:11:37;26.50;65.30
4602;DHT22;2313;48.552;9.370;2023-06-14T16:14:03;26.20;65.60
4602;DHT22;2313;48.552;9.370;2023-06-14T16:16:29;26.00;65.60
4602;DHT22;2313;48.552;9.370;2023-06-14T16:18:55;25.70;66.40